createdAt,value
2018-04-24T04:38:17.332Z,82.10
2018-04-24T04:40:49.204Z,81.70
2018-04-24T04:43:21.081Z,81.50
2018-04-24T04:45:52.951Z,82.00
2018-04-24T04:48:25.596Z,81.10
2018-04-24T04:50:57.458Z,81.00
2018-04-24T04:53:29.348Z,81.10
2018-04-24T04:56:01.231Z,81.30
2018-04-24T04:58:33.121Z,80.40
2018-04-24T05:01:05.760Z,80.60
2018-04-24T05:03:37.641Z,80.50
2018-04-24T05:06:09.510Z,80.50
2018-04-24T05:08:42.149Z,80.10
2018-04-24T05:11:14.022Z,80.10
2018-04-24T05:13:45.977Z,79.50
2018-04-24T05:16:17.862Z,79.90
2018-04-24T05:18:50.537Z,79.20
2018-04-24T05:21:22.404Z,79.20
2018-04-24T05:23:54.311Z,79.70
2018-04-24T05:26:26.247Z,79.20
2018-04-24T05:28:58.149Z,79.50
2018-04-24T05:31:30.022Z,79.30
2018-04-24T05:34:01.977Z,78.60
2018-04-24T05:36:33.926Z,77.90
2018-04-24T05:39:05.809Z,77.80
2018-04-24T05:41:37.681Z,76.70
2018-04-24T05:44:09.568Z,76.70
2018-04-24T05:46:42.194Z,75.90
2018-04-24T05:49:14.147Z,75.90
2018-04-24T05:51:46.017Z,76.10
2018-04-24T05:54:17.897Z,76.00
2018-04-24T05:56:49.837Z,76.10
2018-04-24T05:59:21.793Z,75.40
2018-04-24T06:01:53.657Z,75.10
2018-04-24T06:04:25.635Z,76.30
2018-04-24T06:06:57.492Z,76.10
2018-04-24T06:09:29.533Z,75.80
2018-04-24T06:12:01.401Z,74.70
2018-04-24T06:14:33.370Z,73.70
2018-04-24T06:17:05.321Z,73.30
2018-04-24T06:19:37.550Z,72.00
2018-04-24T06:22:09.454Z,72.00
2018-04-24T06:24:41.333Z,72.40
2018-04-24T06:27:13.208Z,71.10
2018-04-24T06:29:45.089Z,71.40
2018-04-24T06:32:17.097Z,71.10
2018-04-24T06:34:48.982Z,71.20
2018-04-24T06:37:21.080Z,71.40
2018-04-24T06:39:52.985Z,71.00
2018-04-24T06:42:24.985Z,70.50
2018-04-24T06:44:56.845Z,70.60
2018-04-24T06:47:29.485Z,70.50
2018-04-24T06:50:01.765Z,70.50
2018-04-24T06:52:33.886Z,70.70
2018-04-24T06:55:05.789Z,70.50
2018-04-24T06:57:37.642Z,69.70
2018-04-24T07:00:09.593Z,69.40
2018-04-24T07:02:41.474Z,70.00
2018-04-24T07:05:13.362Z,69.70
2018-04-24T07:07:46.130Z,68.60
2018-04-24T07:10:18.120Z,68.50
2018-04-24T07:12:50.837Z,67.90
2018-04-24T07:15:22.724Z,67.80
2018-04-24T07:17:54.662Z,68.80
2018-04-24T07:20:26.604Z,68.60
2018-04-24T07:22:58.473Z,67.20
2018-04-24T07:25:30.453Z,67.10
2018-04-24T07:28:02.470Z,66.50
2018-04-24T07:30:35.113Z,66.40
2018-04-24T07:33:07.007Z,66.40
2018-04-24T07:35:39.790Z,65.20
2018-04-24T07:38:12.774Z,65.20
2018-04-24T07:40:44.685Z,64.30
2018-04-24T07:43:16.583Z,63.80
2018-04-24T07:45:49.272Z,63.60
2018-04-24T07:48:21.898Z,63.10
2018-04-24T07:50:53.786Z,63.10
2018-04-24T07:53:25.706Z,63.50
2018-04-24T07:55:57.941Z,63.40
2018-04-24T07:58:29.871Z,63.60
2018-04-24T08:01:03.321Z,63.60
2018-04-24T08:03:35.278Z,63.60
2018-04-24T08:06:07.327Z,64.30
2018-04-24T08:08:40.062Z,64.20
2018-04-24T08:11:12.024Z,64.10
2018-04-24T08:13:43.977Z,64.30
2018-04-24T08:16:16.206Z,63.60
2018-04-24T08:18:48.107Z,64.20
2018-04-24T08:21:19.995Z,64.30
2018-04-24T08:23:52.187Z,64.90
2018-04-24T08:26:24.562Z,65.70
2018-04-24T08:28:56.725Z,65.80
2018-04-24T08:31:28.996Z,65.80
2018-04-24T08:34:00.894Z,65.70
2018-04-24T08:36:32.774Z,66.20
2018-04-24T08:39:05.549Z,66.20
2018-04-24T08:41:37.597Z,66.50
2018-04-24T08:44:09.473Z,66.10
2018-04-24T08:46:41.361Z,66.30
2018-04-24T08:49:14.009Z,66.70
2018-04-24T08:51:45.887Z,67.30
2018-04-24T08:54:18.085Z,66.40
2018-04-24T08:56:49.977Z,66.50
2018-04-24T08:59:21.876Z,66.70
2018-04-24T09:01:54.585Z,66.90
2018-04-24T09:04:26.489Z,66.80
2018-04-24T09:06:58.450Z,66.60
2018-04-24T09:09:30.329Z,66.90
2018-04-24T09:12:02.275Z,67.40
2018-04-24T09:14:34.250Z,67.60
2018-04-24T09:17:06.537Z,67.80
2018-04-24T09:19:38.465Z,68.00
2018-04-24T09:22:10.689Z,68.40
2018-04-24T09:24:42.866Z,68.00
2018-04-24T09:27:15.030Z,68.10
2018-04-24T09:29:46.892Z,68.00
2018-04-24T09:32:18.785Z,67.70
2018-04-24T09:34:50.661Z,68.80
2018-04-24T09:37:23.577Z,68.70
2018-04-24T09:39:56.579Z,69.50
2018-04-24T09:42:28.458Z,69.50
2018-04-24T09:45:00.325Z,69.80
2018-04-24T09:47:32.297Z,70.50
2018-04-24T09:50:04.171Z,70.60
2018-04-24T09:52:36.120Z,71.00
2018-04-24T09:55:07.994Z,71.70
2018-04-24T09:57:40.203Z,71.50
2018-04-24T10:00:12.106Z,71.90
2018-04-24T10:02:43.994Z,71.70
2018-04-24T10:05:15.865Z,72.40
2018-04-24T10:07:48.608Z,72.00
2018-04-24T10:10:20.485Z,71.90
2018-04-24T10:12:53.142Z,71.70
2018-04-24T10:15:25.018Z,71.60
2018-04-24T10:17:56.980Z,71.30
2018-04-24T10:20:29.091Z,71.20
2018-04-24T10:23:01.021Z,71.00
2018-04-24T10:25:34.493Z,70.10
2018-04-24T10:28:07.126Z,70.00
2018-04-24T10:30:38.993Z,69.80
2018-04-24T10:33:10.885Z,69.40
2018-04-24T10:35:42.759Z,68.90
2018-04-24T10:38:14.708Z,68.60
2018-04-24T10:40:46.582Z,69.20
2018-04-24T10:43:18.462Z,68.90
2018-04-24T10:45:51.139Z,68.80
2018-04-24T10:48:23.337Z,68.60
2018-04-24T10:50:55.501Z,69.20
2018-04-24T10:53:27.401Z,69.40
2018-04-24T10:55:59.393Z,69.20
2018-04-24T10:58:31.593Z,69.00
2018-04-24T11:01:03.757Z,68.40
2018-04-24T11:03:35.922Z,68.60
2018-04-24T11:06:07.885Z,68.10
2018-04-24T11:08:40.610Z,66.00
2018-04-24T11:11:12.483Z,65.90
2018-04-24T11:13:44.421Z,65.00
2018-04-24T11:16:16.294Z,63.50
2018-04-24T11:18:48.409Z,63.00
2018-04-24T11:21:20.362Z,63.00
2018-04-24T11:23:52.170Z,62.60
2018-04-24T11:26:24.302Z,62.80
2018-04-24T11:28:56.192Z,62.50
2018-04-24T11:31:28.061Z,61.30
2018-04-24T11:33:59.996Z,61.80
2018-04-24T11:36:31.937Z,60.30
2018-04-24T11:39:03.769Z,60.90
2018-04-24T11:41:37.827Z,61.50
2018-04-24T11:44:09.768Z,61.10
2018-04-24T11:46:41.847Z,60.50
2018-04-24T11:49:13.753Z,60.40
2018-04-24T11:51:45.627Z,60.40
2018-04-24T11:54:17.517Z,60.70
2018-04-24T11:56:49.686Z,59.80
2018-04-24T11:59:21.851Z,59.60
2018-04-24T12:01:53.834Z,58.90
2018-04-24T12:04:25.715Z,59.40
2018-04-24T12:06:57.582Z,60.00
2018-04-24T12:09:30.234Z,59.80
2018-04-24T12:12:02.103Z,59.80
2018-04-24T12:14:33.992Z,61.70
2018-04-24T12:17:05.864Z,61.50
2018-04-24T12:19:37.746Z,63.40
2018-04-24T12:22:10.379Z,62.90
2018-04-24T12:24:42.281Z,62.90
2018-04-24T12:27:14.905Z,63.60
2018-04-24T12:29:46.790Z,63.50
2018-04-24T12:32:18.658Z,63.30
2018-04-24T12:34:50.590Z,63.70
2018-04-24T12:37:22.462Z,64.50
2018-04-24T12:39:54.342Z,64.80
2018-04-24T12:42:26.226Z,65.20
2018-04-24T12:44:58.134Z,65.40
2018-04-24T12:47:30.006Z,65.00
2018-04-24T12:50:02.651Z,66.20
2018-04-24T12:52:34.517Z,66.20
2018-04-24T12:55:06.448Z,66.70
2018-04-24T12:57:39.082Z,66.80
2018-04-24T13:00:10.973Z,66.80
2018-04-24T13:02:43.598Z,67.50
2018-04-24T13:05:15.485Z,67.40
2018-04-24T13:07:47.381Z,68.10
2018-04-24T13:10:20.064Z,71.10
2018-04-24T13:12:52.742Z,72.00
2018-04-24T13:15:25.421Z,72.80
2018-04-24T13:17:58.049Z,73.00
2018-04-24T13:20:30.167Z,73.00
2018-04-24T13:23:02.037Z,73.20
2018-04-24T13:25:34.083Z,72.70
2018-04-24T13:28:05.861Z,72.80
2018-04-24T13:30:38.015Z,72.90
2018-04-24T13:33:10.187Z,72.50
2018-04-24T13:35:42.065Z,72.50
2018-04-24T13:38:13.934Z,73.30
2018-04-24T13:40:46.066Z,73.40
2018-04-24T13:43:17.936Z,73.40
2018-04-24T13:45:50.094Z,74.40
2018-04-24T13:48:21.959Z,73.80
2018-04-24T13:50:53.845Z,73.10
2018-04-24T13:53:25.737Z,71.80
2018-04-24T13:55:57.940Z,71.30
2018-04-24T13:58:29.810Z,69.60
2018-04-24T14:01:01.695Z,69.50
2018-04-24T14:03:33.565Z,70.20
2018-04-24T14:06:05.792Z,69.60
2018-04-24T14:08:37.660Z,69.20
2018-04-24T14:11:09.542Z,69.60
2018-04-24T14:13:41.469Z,68.60
2018-04-24T14:16:14.109Z,68.90
2018-04-24T14:18:45.994Z,68.80
2018-04-24T14:21:18.637Z,69.70
2018-04-24T14:23:50.502Z,69.60
2018-04-24T14:26:22.610Z,69.50
2018-04-24T14:28:54.478Z,69.80
2018-04-24T14:31:26.373Z,70.00
2018-04-24T14:33:58.498Z,70.40
2018-04-24T14:36:30.665Z,71.40
2018-04-24T14:39:02.625Z,71.70
2018-04-24T14:41:35.276Z,71.70
2018-04-24T14:44:07.139Z,71.70
2018-04-24T14:46:39.054Z,72.20
2018-04-24T14:49:10.933Z,72.60
2018-04-24T14:51:43.178Z,72.70
2018-04-24T14:54:14.928Z,72.20
2018-04-24T14:56:46.921Z,72.00
2018-04-24T14:59:18.881Z,71.30
2018-04-24T15:01:50.757Z,71.80
2018-04-24T15:04:22.631Z,71.50
2018-04-24T15:06:54.730Z,71.10
2018-04-24T15:09:26.890Z,71.00
2018-04-24T15:11:58.791Z,70.90
2018-04-24T15:14:30.663Z,71.00
2018-04-24T15:17:02.542Z,70.60
2018-04-24T15:19:34.414Z,70.90
2018-04-24T15:22:07.061Z,70.10
2018-04-24T15:24:39.169Z,70.10
2018-04-24T15:27:11.293Z,69.60
2018-04-24T15:29:43.246Z,70.60
2018-04-24T15:32:15.125Z,70.40
2018-04-24T15:34:46.998Z,70.10
2018-04-24T15:37:19.798Z,70.10
2018-04-24T15:39:52.683Z,70.20
2018-04-24T15:42:25.497Z,70.10
2018-04-24T15:44:57.361Z,70.20
2018-04-24T15:47:29.326Z,70.10
2018-04-24T15:50:01.298Z,69.90
2018-04-24T15:52:33.514Z,70.30
2018-04-24T15:55:05.378Z,69.20
2018-04-24T15:57:37.267Z,69.90
2018-04-24T16:00:09.237Z,70.00
2018-04-24T16:02:41.362Z,70.70
2018-04-24T16:05:13.265Z,70.60
2018-04-24T16:07:45.144Z,70.30
2018-04-24T16:10:17.245Z,69.80
2018-04-24T16:12:49.159Z,70.00
2018-04-24T16:15:21.478Z,69.80
2018-04-24T16:17:54.118Z,70.20
2018-04-24T16:20:25.990Z,70.20
2018-04-24T16:22:57.870Z,69.70
2018-04-24T16:25:30.509Z,70.50
2018-04-24T16:28:02.394Z,70.50
2018-04-24T16:30:35.029Z,70.60
2018-04-24T16:33:06.916Z,70.40
2018-04-24T16:35:38.782Z,70.40
2018-04-24T16:38:10.981Z,70.50
2018-04-24T16:40:42.845Z,70.40
2018-04-24T16:43:14.733Z,71.00
2018-04-24T16:45:46.597Z,70.40
2018-04-24T16:48:18.508Z,70.70
2018-04-24T16:50:51.142Z,71.60
2018-04-24T16:53:23.036Z,71.50
2018-04-24T16:55:55.788Z,72.60
2018-04-24T16:58:27.695Z,72.10
2018-04-24T17:00:59.705Z,72.40
2018-04-24T17:03:31.665Z,72.70
2018-04-24T17:06:03.556Z,72.60
2018-04-24T17:08:35.492Z,72.50
2018-04-24T17:11:07.405Z,72.50
2018-04-24T17:13:40.289Z,73.20
2018-04-24T17:16:12.713Z,73.00
2018-04-24T17:18:44.837Z,73.50
2018-04-24T17:21:16.996Z,73.70
2018-04-24T17:23:48.912Z,73.80
2018-04-24T17:26:21.022Z,74.30
2018-04-24T17:28:52.913Z,74.10
2018-04-24T17:31:24.793Z,74.10
2018-04-24T17:33:56.673Z,74.10
2018-04-24T17:36:29.337Z,74.50
2018-04-24T17:39:01.288Z,74.40
2018-04-24T17:41:33.249Z,74.80
2018-04-24T17:44:05.576Z,75.30
2018-04-24T17:46:38.223Z,75.50
2018-04-24T17:49:10.109Z,75.40
2018-04-24T17:51:42.017Z,75.80
2018-04-24T17:54:13.898Z,76.00
2018-04-24T17:56:45.841Z,75.60
2018-04-24T17:59:18.330Z,75.90
2018-04-24T18:01:50.200Z,76.40
2018-04-24T18:04:22.499Z,77.10
2018-04-24T18:06:55.359Z,76.80
2018-04-24T18:09:27.241Z,76.80
2018-04-24T18:11:59.151Z,77.60
2018-04-24T18:14:31.075Z,77.00
2018-04-24T18:17:02.977Z,76.90
2018-04-24T18:19:34.869Z,77.60
2018-04-24T18:22:07.695Z,77.90
2018-04-24T18:24:39.802Z,77.90
2018-04-24T18:27:11.672Z,78.10
2018-04-24T18:29:44.433Z,79.20
2018-04-24T18:32:16.645Z,78.50
2018-04-24T18:34:48.809Z,78.30
2018-04-24T18:37:20.694Z,78.50
2018-04-24T18:39:52.578Z,78.40
2018-04-24T18:42:24.506Z,78.40
2018-04-24T18:44:56.430Z,78.50
2018-04-24T18:47:29.095Z,77.80
2018-04-24T18:50:00.975Z,77.70
2018-04-24T18:52:33.690Z,78.70
2018-04-24T18:55:05.833Z,78.60
2018-04-24T18:57:37.851Z,78.90
2018-04-24T19:00:09.798Z,78.80
2018-04-24T19:02:41.775Z,79.10
2018-04-24T19:05:13.687Z,79.40
2018-04-24T19:07:47.141Z,79.50
2018-04-24T19:10:19.041Z,79.50
2018-04-24T19:12:50.947Z,79.60
2018-04-24T19:15:22.915Z,79.90
2018-04-24T19:17:54.794Z,80.50
2018-04-24T19:20:26.722Z,80.60
2018-04-24T19:22:58.831Z,80.70
2018-04-24T19:25:30.725Z,80.50
2018-04-24T19:28:02.622Z,80.70
2018-04-24T19:30:34.571Z,81.10
2018-04-24T19:33:07.623Z,81.50
2018-04-24T19:35:39.521Z,81.50
2018-04-24T19:38:11.483Z,82.20
2018-04-24T19:40:43.384Z,81.30
2018-04-24T19:43:15.569Z,81.40
2018-04-24T19:45:47.473Z,81.60
2018-04-24T19:48:19.437Z,81.20
2018-04-24T19:50:51.330Z,80.80
2018-04-24T19:53:23.215Z,81.10
2018-04-24T19:55:55.933Z,80.50
2018-04-24T19:58:27.805Z,80.50
2018-04-24T20:00:59.814Z,80.50
2018-04-24T20:03:32.446Z,80.10
2018-04-24T20:06:05.298Z,80.10
2018-04-24T20:08:37.581Z,80.30
2018-04-24T20:11:09.477Z,80.20
2018-04-24T20:13:41.683Z,80.20
2018-04-24T20:16:13.561Z,80.10
2018-04-24T20:18:45.438Z,80.10
2018-04-24T20:21:17.325Z,80.80
2018-04-24T20:23:49.194Z,81.10
2018-04-24T20:26:21.066Z,81.60
2018-04-24T20:28:53.771Z,82.00
2018-04-24T20:31:25.614Z,81.80
2018-04-24T20:33:57.502Z,81.70
2018-04-24T20:36:29.385Z,81.70
2018-04-24T20:39:01.499Z,81.30
2018-04-24T20:41:34.277Z,81.40
2018-04-24T20:44:06.153Z,81.40
2018-04-24T20:46:38.037Z,81.70
2018-04-24T20:49:09.917Z,81.30
2018-04-24T20:51:41.893Z,81.60
2018-04-24T20:54:14.089Z,81.30
2018-04-24T20:56:46.001Z,81.60
2018-04-24T20:59:17.917Z,81.60
2018-04-24T21:01:49.801Z,81.70
2018-04-24T21:04:21.678Z,81.90
2018-04-24T21:06:53.566Z,82.20
2018-04-24T21:09:25.433Z,82.10
2018-04-24T21:11:58.433Z,82.20
2018-04-24T21:14:30.311Z,82.10
2018-04-24T21:17:02.194Z,82.20
2018-04-24T21:19:34.240Z,82.20
